sensor_id;sensor_type;location;lat;lon;timestamp;temperature;humidity
62853;DHT22;49205;44.868;38.140;2022-08-30T00:02:03;23.60;89.40
62853;DHT22;49205;44.868;38.140;2022-08-30T00:04:33;23.60;89.40
62853;DHT22;49205;44.868;38.140;2022-08-30T00:07:02;23.70;89.40
62853;DHT22;49205;44.868;38.140;2022-08-30T00:09:32;23.70;89.40
62853;DHT22;49205;44.868;38.140;2022-08-30T00:12:01;23.70;89.30
62853;DHT22;49205;44.868;38.140;2022-08-30T00:14:31;23.70;89.20
62853;DHT22;49205;44.868;38.140;2022-08-30T00:17:00;23.70;89.20
62853;DHT22;49205;44.868;38.140;2022-08-30T00:19:30;23.70;89.30
62853;DHT22;49205;44.868;38.140;2022-08-30T00:21:59;23.70;89.20
62853;DHT22;49205;44.868;38.140;2022-08-30T00:24:29;23.60;89.00
62853;DHT22;49205;44.868;38.140;2022-08-30T00:26:58;23.60;89.00
62853;DHT22;49205;44.868;38.140;2022-08-30T00:29:27;23.50;89.20
62853;DHT22;49205;44.868;38.140;2022-08-30T00:31:57;23.40;89.60
62853;DHT22;49205;44.868;38.140;2022-08-30T00:34:26;23.40;89.80
62853;DHT22;49205;44.868;38.140;2022-08-30T00:36:55;23.40;89.90
62853;DHT22;49205;44.868;38.140;2022-08-30T00:39:26;23.40;89.70
62853;DHT22;49205;44.868;38.140;2022-08-30T00:41:55;23.40;89.80
62853;DHT22;49205;44.868;38.140;2022-08-30T00:44:24;23.40;89.70
62853;DHT22;49205;44.868;38.140;2022-08-30T00:46:53;23.40;89.70
62853;DHT22;49205;44.868;38.140;2022-08-30T00:49:23;23.50;89.80
62853;DHT22;49205;44.868;38.140;2022-08-30T00:51:53;23.50;89.70
62853;DHT22;49205;44.868;38.140;2022-08-30T00:54:23;23.50;89.70
62853;DHT22;49205;44.868;38.140;2022-08-30T00:56:53;23.50;89.60
62853;DHT22;49205;44.868;38.140;2022-08-30T00:59:23;23.50;89.50
62853;DHT22;49205;44.868;38.140;2022-08-30T01:01:53;23.40;89.30
62853;DHT22;49205;44.868;38.140;2022-08-30T01:04:24;23.30;89.50
62853;DHT22;49205;44.868;38.140;2022-08-30T01:06:54;23.20;89.80
62853;DHT22;49205;44.868;38.140;2022-08-30T01:09:23;23.20;90.00
62853;DHT22;49205;44.868;38.140;2022-08-30T01:11:53;23.20;90.00
62853;DHT22;49205;44.868;38.140;2022-08-30T01:14:22;23.20;90.00
62853;DHT22;49205;44.868;38.140;2022-08-30T01:16:54;23.20;90.00
62853;DHT22;49205;44.868;38.140;2022-08-30T01:25:05;23.20;90.00
62853;DHT22;49205;44.868;38.140;2022-08-30T01:27:37;23.20;90.00
62853;DHT22;49205;44.868;38.140;2022-08-30T01:30:08;23.20;89.90
62853;DHT22;49205;44.868;38.140;2022-08-30T01:32:42;23.20;90.00
62853;DHT22;49205;44.868;38.140;2022-08-30T01:35:14;23.20;90.00
62853;DHT22;49205;44.868;38.140;2022-08-30T01:37:44;23.20;90.00
62853;DHT22;49205;44.868;38.140;2022-08-30T01:40:14;23.20;90.00
62853;DHT22;49205;44.868;38.140;2022-08-30T01:42:44;23.20;90.10
62853;DHT22;49205;44.868;38.140;2022-08-30T01:45:14;23.20;90.10
62853;DHT22;49205;44.868;38.140;2022-08-30T01:47:43;23.30;90.10
62853;DHT22;49205;44.868;38.140;2022-08-30T01:50:13;23.30;90.10
62853;DHT22;49205;44.868;38.140;2022-08-30T01:52:42;23.30;90.10
62853;DHT22;49205;44.868;38.140;2022-08-30T01:55:11;23.30;90.10
62853;DHT22;49205;44.868;38.140;2022-08-30T01:57:40;23.30;90.10
62853;DHT22;49205;44.868;38.140;2022-08-30T02:00:10;23.30;90.10
62853;DHT22;49205;44.868;38.140;2022-08-30T02:02:40;23.30;90.10
62853;DHT22;49205;44.868;38.140;2022-08-30T02:05:10;23.30;90.10
62853;DHT22;49205;44.868;38.140;2022-08-30T02:07:39;23.40;90.10
62853;DHT22;49205;44.868;38.140;2022-08-30T02:10:09;23.40;90.00
62853;DHT22;49205;44.868;38.140;2022-08-30T02:12:39;23.30;89.90
62853;DHT22;49205;44.868;38.140;2022-08-30T02:15:09;23.20;90.00
62853;DHT22;49205;44.868;38.140;2022-08-30T02:17:40;23.10;90.10
62853;DHT22;49205;44.868;38.140;2022-08-30T02:20:10;23.10;90.30
62853;DHT22;49205;44.868;38.140;2022-08-30T02:22:39;23.10;90.20
62853;DHT22;49205;44.868;38.140;2022-08-30T02:25:09;23.00;90.30
62853;DHT22;49205;44.868;38.140;2022-08-30T02:27:38;23.00;90.40
62853;DHT22;49205;44.868;38.140;2022-08-30T02:30:09;23.00;90.50
62853;DHT22;49205;44.868;38.140;2022-08-30T02:32:39;22.90;90.50
62853;DHT22;49205;44.868;38.140;2022-08-30T02:35:08;22.90;90.50
62853;DHT22;49205;44.868;38.140;2022-08-30T02:37:38;22.90;90.50
62853;DHT22;49205;44.868;38.140;2022-08-30T02:40:07;22.90;90.50
62853;DHT22;49205;44.868;38.140;2022-08-30T02:42:37;22.90;90.50
62853;DHT22;49205;44.868;38.140;2022-08-30T02:45:08;22.90;90.40
62853;DHT22;49205;44.868;38.140;2022-08-30T02:47:38;22.80;90.30
62853;DHT22;49205;44.868;38.140;2022-08-30T02:50:08;22.80;90.40
62853;DHT22;49205;44.868;38.140;2022-08-30T02:52:37;22.70;90.50
62853;DHT22;49205;44.868;38.140;2022-08-30T02:55:08;22.70;90.50
62853;DHT22;49205;44.868;38.140;2022-08-30T02:57:37;22.60;90.60
62853;DHT22;49205;44.868;38.140;2022-08-30T03:00:08;22.60;90.70
62853;DHT22;49205;44.868;38.140;2022-08-30T03:02:39;22.70;90.80
62853;DHT22;49205;44.868;38.140;2022-08-30T03:05:09;22.70;90.70
62853;DHT22;49205;44.868;38.140;2022-08-30T03:07:41;22.80;90.70
62853;DHT22;49205;44.868;38.140;2022-08-30T03:10:10;22.80;90.90
62853;DHT22;49205;44.868;38.140;2022-08-30T03:12:47;22.80;90.60
62853;DHT22;49205;44.868;38.140;2022-08-30T03:15:40;22.80;90.50
62853;DHT22;49205;44.868;38.140;2022-08-30T03:18:09;22.80;90.40
62853;DHT22;49205;44.868;38.140;2022-08-30T03:20:40;22.80;90.40
62853;DHT22;49205;44.868;38.140;2022-08-30T03:23:09;22.70;90.40
62853;DHT22;49205;44.868;38.140;2022-08-30T03:25:39;22.60;90.50
62853;DHT22;49205;44.868;38.140;2022-08-30T03:28:09;22.60;90.60
62853;DHT22;49205;44.868;38.140;2022-08-30T03:30:38;22.60;90.60
62853;DHT22;49205;44.868;38.140;2022-08-30T03:33:07;22.60;90.70
62853;DHT22;49205;44.868;38.140;2022-08-30T03:35:37;22.70;90.60
62853;DHT22;49205;44.868;38.140;2022-08-30T03:38:06;22.70;90.60
62853;DHT22;49205;44.868;38.140;2022-08-30T03:40:35;22.80;90.60
62853;DHT22;49205;44.868;38.140;2022-08-30T03:43:04;22.80;90.60
62853;DHT22;49205;44.868;38.140;2022-08-30T03:45:34;22.80;90.70
62853;DHT22;49205;44.868;38.140;2022-08-30T03:48:03;22.90;90.70
62853;DHT22;49205;44.868;38.140;2022-08-30T03:50:34;23.00;90.60
62853;DHT22;49205;44.868;38.140;2022-08-30T03:53:04;23.10;90.50
62853;DHT22;49205;44.868;38.140;2022-08-30T03:55:33;23.10;90.40
62853;DHT22;49205;44.868;38.140;2022-08-30T03:58:02;23.20;90.40
62853;DHT22;49205;44.868;38.140;2022-08-30T04:00:32;23.20;90.40
62853;DHT22;49205;44.868;38.140;2022-08-30T04:03:01;23.30;90.40
62853;DHT22;49205;44.868;38.140;2022-08-30T04:05:31;23.40;90.30
62853;DHT22;49205;44.868;38.140;2022-08-30T04:08:00;23.50;90.20
62853;DHT22;49205;44.868;38.140;2022-08-30T04:10:29;23.60;90.10
62853;DHT22;49205;44.868;38.140;2022-08-30T04:12:58;23.50;89.80
62853;DHT22;49205;44.868;38.140;2022-08-30T04:15:28;23.50;89.90
62853;DHT22;49205;44.868;38.140;2022-08-30T04:17:57;23.50;90.00
62853;DHT22;49205;44.868;38.140;2022-08-30T04:20:27;23.60;90.00
62853;DHT22;49205;44.868;38.140;2022-08-30T04:22:56;23.60;90.00
62853;DHT22;49205;44.868;38.140;2022-08-30T04:25:26;23.60;89.90
62853;DHT22;49205;44.868;38.140;2022-08-30T04:27:55;23.60;89.70
62853;DHT22;49205;44.868;38.140;2022-08-30T04:30:24;23.50;89.70
62853;DHT22;49205;44.868;38.140;2022-08-30T04:32:53;23.50;89.90
62853;DHT22;49205;44.868;38.140;2022-08-30T04:35:23;23.60;90.00
62853;DHT22;49205;44.868;38.140;2022-08-30T04:37:53;23.60;89.90
62853;DHT22;49205;44.868;38.140;2022-08-30T04:40:23;23.60;89.90
62853;DHT22;49205;44.868;38.140;2022-08-30T04:42:52;23.60;89.90
62853;DHT22;49205;44.868;38.140;2022-08-30T04:45:22;23.70;89.80
62853;DHT22;49205;44.868;38.140;2022-08-30T04:47:52;23.80;89.80
62853;DHT22;49205;44.868;38.140;2022-08-30T04:50:22;23.80;89.70
62853;DHT22;49205;44.868;38.140;2022-08-30T04:52:51;23.90;89.70
62853;DHT22;49205;44.868;38.140;2022-08-30T04:55:21;24.00;89.60
62853;DHT22;49205;44.868;38.140;2022-08-30T04:57:52;24.10;89.70
62853;DHT22;49205;44.868;38.140;2022-08-30T05:00:21;24.20;89.70
62853;DHT22;49205;44.868;38.140;2022-08-30T05:02:50;24.30;89.50
62853;DHT22;49205;44.868;38.140;2022-08-30T05:05:20;24.40;89.40
62853;DHT22;49205;44.868;38.140;2022-08-30T05:08:09;24.50;89.00
62853;DHT22;49205;44.868;38.140;2022-08-30T05:10:41;24.60;88.90
62853;DHT22;49205;44.868;38.140;2022-08-30T05:13:11;24.70;88.70
62853;DHT22;49205;44.868;38.140;2022-08-30T05:15:40;24.70;88.50
62853;DHT22;49205;44.868;38.140;2022-08-30T05:18:11;24.80;88.30
62853;DHT22;49205;44.868;38.140;2022-08-30T05:20:41;25.00;88.10
62853;DHT22;49205;44.868;38.140;2022-08-30T05:23:10;25.00;88.00
62853;DHT22;49205;44.868;38.140;2022-08-30T05:25:41;25.10;87.90
62853;DHT22;49205;44.868;38.140;2022-08-30T05:28:10;25.20;87.80
62853;DHT22;49205;44.868;38.140;2022-08-30T05:30:39;25.30;87.70
62853;DHT22;49205;44.868;38.140;2022-08-30T05:33:09;25.40;87.60
62853;DHT22;49205;44.868;38.140;2022-08-30T05:35:38;25.50;87.40
62853;DHT22;49205;44.868;38.140;2022-08-30T05:38:07;25.60;87.20
62853;DHT22;49205;44.868;38.140;2022-08-30T05:40:41;25.70;86.70
62853;DHT22;49205;44.868;38.140;2022-08-30T05:43:11;25.80;86.40
62853;DHT22;49205;44.868;38.140;2022-08-30T05:45:41;25.90;86.30
62853;DHT22;49205;44.868;38.140;2022-08-30T05:48:10;26.00;85.80
62853;DHT22;49205;44.868;38.140;2022-08-30T05:50:39;26.00;85.10
62853;DHT22;49205;44.868;38.140;2022-08-30T05:53:09;26.10;84.70
62853;DHT22;49205;44.868;38.140;2022-08-30T05:55:39;26.10;83.80
62853;DHT22;49205;44.868;38.140;2022-08-30T05:58:09;26.20;82.80
62853;DHT22;49205;44.868;38.140;2022-08-30T06:00:38;26.30;82.80
62853;DHT22;49205;44.868;38.140;2022-08-30T06:03:08;26.40;82.60
62853;DHT22;49205;44.868;38.140;2022-08-30T06:05:39;26.50;82.20
62853;DHT22;49205;44.868;38.140;2022-08-30T06:08:09;26.50;80.70
62853;DHT22;49205;44.868;38.140;2022-08-30T06:10:38;26.60;79.40
62853;DHT22;49205;44.868;38.140;2022-08-30T06:13:07;26.70;78.70
62853;DHT22;49205;44.868;38.140;2022-08-30T06:15:41;26.80;78.50
62853;DHT22;49205;44.868;38.140;2022-08-30T06:18:12;26.80;78.10
62853;DHT22;49205;44.868;38.140;2022-08-30T06:20:42;27.00;78.20
62853;DHT22;49205;44.868;38.140;2022-08-30T06:23:13;27.00;78.00
62853;DHT22;49205;44.868;38.140;2022-08-30T06:25:44;27.10;77.90
62853;DHT22;49205;44.868;38.140;2022-08-30T06:28:13;27.20;77.80
62853;DHT22;49205;44.868;38.140;2022-08-30T06:30:43;27.20;77.40
62853;DHT22;49205;44.868;38.140;2022-08-30T06:33:12;27.30;76.80
62853;DHT22;49205;44.868;38.140;2022-08-30T06:35:41;27.30;76.60
62853;DHT22;49205;44.868;38.140;2022-08-30T06:38:11;27.30;77.20
62853;DHT22;49205;44.868;38.140;2022-08-30T06:40:40;27.30;76.10
62853;DHT22;49205;44.868;38.140;2022-08-30T06:43:09;27.40;75.90
62853;DHT22;49205;44.868;38.140;2022-08-30T06:45:39;27.40;75.20
62853;DHT22;49205;44.868;38.140;2022-08-30T06:48:08;27.50;75.50
62853;DHT22;49205;44.868;38.140;2022-08-30T06:50:38;27.50;75.30
62853;DHT22;49205;44.868;38.140;2022-08-30T06:53:09;27.60;75.40
62853;DHT22;49205;44.868;38.140;2022-08-30T06:55:38;27.60;74.90
62853;DHT22;49205;44.868;38.140;2022-08-30T06:58:07;27.70;75.00
62853;DHT22;49205;44.868;38.140;2022-08-30T07:00:36;27.70;74.50
62853;DHT22;49205;44.868;38.140;2022-08-30T07:03:07;27.80;74.60
62853;DHT22;49205;44.868;38.140;2022-08-30T07:05:36;27.90;74.40
62853;DHT22;49205;44.868;38.140;2022-08-30T07:08:05;27.90;74.40
62853;DHT22;49205;44.868;38.140;2022-08-30T07:10:39;28.00;74.00
62853;DHT22;49205;44.868;38.140;2022-08-30T07:13:09;28.00;74.10
62853;DHT22;49205;44.868;38.140;2022-08-30T07:15:45;28.10;74.50
62853;DHT22;49205;44.868;38.140;2022-08-30T07:18:12;28.10;74.60
62853;DHT22;49205;44.868;38.140;2022-08-30T07:21:07;28.10;74.50
62853;DHT22;49205;44.868;38.140;2022-08-30T07:23:37;28.20;74.40
62853;DHT22;49205;44.868;38.140;2022-08-30T07:26:08;28.20;74.40
62853;DHT22;49205;44.868;38.140;2022-08-30T07:28:39;28.30;74.50
62853;DHT22;49205;44.868;38.140;2022-08-30T07:31:09;28.40;74.40
62853;DHT22;49205;44.868;38.140;2022-08-30T07:33:39;28.40;73.90
62853;DHT22;49205;44.868;38.140;2022-08-30T07:36:09;28.50;73.80
62853;DHT22;49205;44.868;38.140;2022-08-30T07:38:38;28.50;73.60
62853;DHT22;49205;44.868;38.140;2022-08-30T07:41:08;28.60;73.60
62853;DHT22;49205;44.868;38.140;2022-08-30T07:43:37;28.60;73.40
62853;DHT22;49205;44.868;38.140;2022-08-30T07:46:07;28.70;73.50
62853;DHT22;49205;44.868;38.140;2022-08-30T07:48:36;28.70;73.40
62853;DHT22;49205;44.868;38.140;2022-08-30T07:51:14;28.80;73.10
62853;DHT22;49205;44.868;38.140;2022-08-30T07:53:44;28.90;72.90
62853;DHT22;49205;44.868;38.140;2022-08-30T07:56:13;28.90;72.70
62853;DHT22;49205;44.868;38.140;2022-08-30T07:58:42;28.90;72.50
62853;DHT22;49205;44.868;38.140;2022-08-30T08:01:12;28.90;72.60
62853;DHT22;49205;44.868;38.140;2022-08-30T08:03:42;29.00;72.90
62853;DHT22;49205;44.868;38.140;2022-08-30T08:06:13;29.00;72.50
62853;DHT22;49205;44.868;38.140;2022-08-30T08:08:42;29.10;72.30
62853;DHT22;49205;44.868;38.140;2022-08-30T08:11:17;29.10;72.40
62853;DHT22;49205;44.868;38.140;2022-08-30T08:13:48;29.20;72.50
62853;DHT22;49205;44.868;38.140;2022-08-30T08:16:17;29.20;72.20
62853;DHT22;49205;44.868;38.140;2022-08-30T08:18:48;29.20;71.70
62853;DHT22;49205;44.868;38.140;2022-08-30T08:21:18;29.20;71.70
62853;DHT22;49205;44.868;38.140;2022-08-30T08:23:47;29.20;71.90
62853;DHT22;49205;44.868;38.140;2022-08-30T08:26:18;29.30;71.80
62853;DHT22;49205;44.868;38.140;2022-08-30T08:28:47;29.30;71.10
62853;DHT22;49205;44.868;38.140;2022-08-30T08:31:22;29.30;71.40
62853;DHT22;49205;44.868;38.140;2022-08-30T08:33:51;29.40;71.80
62853;DHT22;49205;44.868;38.140;2022-08-30T08:36:21;29.40;71.60
62853;DHT22;49205;44.868;38.140;2022-08-30T08:38:50;29.50;69.60
62853;DHT22;49205;44.868;38.140;2022-08-30T08:44:57;29.60;69.70
62853;DHT22;49205;44.868;38.140;2022-08-30T08:47:36;29.60;69.50
62853;DHT22;49205;44.868;38.140;2022-08-30T08:50:10;29.60;69.20
62853;DHT22;49205;44.868;38.140;2022-08-30T08:55:44;29.70;68.80
62853;DHT22;49205;44.868;38.140;2022-08-30T08:58:20;29.80;68.70
62853;DHT22;49205;44.868;38.140;2022-08-30T09:00:48;29.80;68.70
62853;DHT22;49205;44.868;38.140;2022-08-30T09:03:20;29.90;68.40
62853;DHT22;49205;44.868;38.140;2022-08-30T09:05:50;29.90;67.50
62853;DHT22;49205;44.868;38.140;2022-08-30T09:08:21;29.90;66.70
62853;DHT22;49205;44.868;38.140;2022-08-30T09:11:03;30.00;66.60
62853;DHT22;49205;44.868;38.140;2022-08-30T09:13:31;30.00;65.00
62853;DHT22;49205;44.868;38.140;2022-08-30T09:16:00;30.00;64.10
62853;DHT22;49205;44.868;38.140;2022-08-30T09:18:46;30.00;64.20
62853;DHT22;49205;44.868;38.140;2022-08-30T09:21:22;30.10;64.90
62853;DHT22;49205;44.868;38.140;2022-08-30T09:23:56;30.20;66.00
62853;DHT22;49205;44.868;38.140;2022-08-30T09:26:29;30.20;64.30
62853;DHT22;49205;44.868;38.140;2022-08-30T09:28:59;30.30;64.20
62853;DHT22;49205;44.868;38.140;2022-08-30T09:31:30;30.30;62.20
62853;DHT22;49205;44.868;38.140;2022-08-30T09:34:08;30.20;62.10
62853;DHT22;49205;44.868;38.140;2022-08-30T09:36:46;30.30;62.20
62853;DHT22;49205;44.868;38.140;2022-08-30T09:39:33;30.40;62.50
62853;DHT22;49205;44.868;38.140;2022-08-30T09:42:19;30.40;62.60
62853;DHT22;49205;44.868;38.140;2022-08-30T09:44:48;30.40;63.00
62853;DHT22;49205;44.868;38.140;2022-08-30T09:47:28;30.50;62.10
62853;DHT22;49205;44.868;38.140;2022-08-30T09:50:06;30.50;61.60
62853;DHT22;49205;44.868;38.140;2022-08-30T09:52:51;30.60;62.20
62853;DHT22;49205;44.868;38.140;2022-08-30T09:55:42;30.60;62.00
62853;DHT22;49205;44.868;38.140;2022-08-30T10:01:10;30.60;60.70
62853;DHT22;49205;44.868;38.140;2022-08-30T10:03:45;30.70;60.20
62853;DHT22;49205;44.868;38.140;2022-08-30T10:06:27;30.70;60.20
62853;DHT22;49205;44.868;38.140;2022-08-30T10:17:33;30.90;59.50
62853;DHT22;49205;44.868;38.140;2022-08-30T10:20:25;30.90;59.50
62853;DHT22;49205;44.868;38.140;2022-08-30T10:23:05;31.00;58.10
62853;DHT22;49205;44.868;38.140;2022-08-30T10:25:39;31.00;58.30
62853;DHT22;49205;44.868;38.140;2022-08-30T10:28:17;31.00;58.00
62853;DHT22;49205;44.868;38.140;2022-08-30T10:30:50;31.00;58.20
62853;DHT22;49205;44.868;38.140;2022-08-30T10:33:23;31.00;58.20
62853;DHT22;49205;44.868;38.140;2022-08-30T10:35:55;31.10;58.00
62853;DHT22;49205;44.868;38.140;2022-08-30T10:38:33;31.10;59.20
62853;DHT22;49205;44.868;38.140;2022-08-30T10:43:53;31.10;60.40
62853;DHT22;49205;44.868;38.140;2022-08-30T10:46:39;31.10;60.50
62853;DHT22;49205;44.868;38.140;2022-08-30T10:49:20;31.10;60.50
62853;DHT22;49205;44.868;38.140;2022-08-30T10:54:29;31.10;60.50
62853;DHT22;49205;44.868;38.140;2022-08-30T10:56:51;31.20;59.00
62853;DHT22;49205;44.868;38.140;2022-08-30T10:59:20;31.20;59.50
62853;DHT22;49205;44.868;38.140;2022-08-30T11:04:43;31.20;58.30
62853;DHT22;49205;44.868;38.140;2022-08-30T11:13:17;31.40;58.20
62853;DHT22;49205;44.868;38.140;2022-08-30T11:16:14;31.50;57.40
62853;DHT22;49205;44.868;38.140;2022-08-30T11:18:54;31.50;55.90
62853;DHT22;49205;44.868;38.140;2022-08-30T11:21:40;31.40;56.00
62853;DHT22;49205;44.868;38.140;2022-08-30T11:24:22;31.40;56.30
62853;DHT22;49205;44.868;38.140;2022-08-30T11:26:55;31.40;56.00
62853;DHT22;49205;44.868;38.140;2022-08-30T11:29:29;31.50;56.60
62853;DHT22;49205;44.868;38.140;2022-08-30T11:37:38;31.50;57.20
62853;DHT22;49205;44.868;38.140;2022-08-30T11:42:54;31.60;57.40
62853;DHT22;49205;44.868;38.140;2022-08-30T11:48:00;31.60;58.10
62853;DHT22;49205;44.868;38.140;2022-08-30T11:55:55;31.60;58.10
62853;DHT22;49205;44.868;38.140;2022-08-30T11:58:31;31.60;58.30
62853;DHT22;49205;44.868;38.140;2022-08-30T12:01:16;31.60;57.90
62853;DHT22;49205;44.868;38.140;2022-08-30T12:03:36;31.60;57.20
62853;DHT22;49205;44.868;38.140;2022-08-30T12:06:07;31.70;57.30
62853;DHT22;49205;44.868;38.140;2022-08-30T12:08:46;31.70;57.40
62853;DHT22;49205;44.868;38.140;2022-08-30T12:16:17;31.70;56.90
62853;DHT22;49205;44.868;38.140;2022-08-30T12:19:09;31.70;57.50
62853;DHT22;49205;44.868;38.140;2022-08-30T12:21:29;31.80;57.70
62853;DHT22;49205;44.868;38.140;2022-08-30T12:24:12;31.80;57.70
62853;DHT22;49205;44.868;38.140;2022-08-30T12:26:44;31.70;58.10
62853;DHT22;49205;44.868;38.140;2022-08-30T12:29:19;31.70;58.50
62853;DHT22;49205;44.868;38.140;2022-08-30T12:31:55;31.70;58.40
62853;DHT22;49205;44.868;38.140;2022-08-30T12:34:32;31.70;58.90
62853;DHT22;49205;44.868;38.140;2022-08-30T12:37:19;31.70;59.00
62853;DHT22;49205;44.868;38.140;2022-08-30T12:39:41;31.70;59.40
62853;DHT22;49205;44.868;38.140;2022-08-30T12:42:22;31.70;58.90
62853;DHT22;49205;44.868;38.140;2022-08-30T12:44:58;31.80;59.50
62853;DHT22;49205;44.868;38.140;2022-08-30T12:50:25;31.80;59.70
62853;DHT22;49205;44.868;38.140;2022-08-30T12:52:47;31.80;60.40
62853;DHT22;49205;44.868;38.140;2022-08-30T12:55:20;31.80;59.70
62853;DHT22;49205;44.868;38.140;2022-08-30T12:58:06;31.80;59.60
62853;DHT22;49205;44.868;38.140;2022-08-30T13:00:38;31.80;59.70
62853;DHT22;49205;44.868;38.140;2022-08-30T13:03:36;31.80;59.40
62853;DHT22;49205;44.868;38.140;2022-08-30T13:06:06;31.80;59.00
62853;DHT22;49205;44.868;38.140;2022-08-30T13:11:23;31.80;59.30
62853;DHT22;49205;44.868;38.140;2022-08-30T13:14:18;31.80;58.90
62853;DHT22;49205;44.868;38.140;2022-08-30T13:16:47;31.80;59.20
62853;DHT22;49205;44.868;38.140;2022-08-30T13:19:33;31.80;58.80
62853;DHT22;49205;44.868;38.140;2022-08-30T13:21:58;31.80;58.30
62853;DHT22;49205;44.868;38.140;2022-08-30T13:24:28;31.80;58.60
62853;DHT22;49205;44.868;38.140;2022-08-30T13:27:05;31.80;58.50
62853;DHT22;49205;44.868;38.140;2022-08-30T13:29:36;31.80;58.60
62853;DHT22;49205;44.868;38.140;2022-08-30T13:32:05;31.80;58.60
62853;DHT22;49205;44.868;38.140;2022-08-30T13:34:35;31.80;58.20
62853;DHT22;49205;44.868;38.140;2022-08-30T13:37:04;31.70;58.20
62853;DHT22;49205;44.868;38.140;2022-08-30T13:39:35;31.80;58.30
62853;DHT22;49205;44.868;38.140;2022-08-30T13:42:05;31.70;58.00
62853;DHT22;49205;44.868;38.140;2022-08-30T13:44:35;31.70;58.10
62853;DHT22;49205;44.868;38.140;2022-08-30T13:47:04;31.80;58.00
62853;DHT22;49205;44.868;38.140;2022-08-30T13:49:35;31.80;57.90
62853;DHT22;49205;44.868;38.140;2022-08-30T13:52:07;31.80;57.30
62853;DHT22;49205;44.868;38.140;2022-08-30T13:54:36;31.80;57.40
62853;DHT22;49205;44.868;38.140;2022-08-30T13:57:06;31.70;57.30
62853;DHT22;49205;44.868;38.140;2022-08-30T13:59:35;31.70;57.40
62853;DHT22;49205;44.868;38.140;2022-08-30T14:02:05;31.70;57.20
62853;DHT22;49205;44.868;38.140;2022-08-30T14:04:34;31.70;57.50
62853;DHT22;49205;44.868;38.140;2022-08-30T14:07:03;31.70;57.20
62853;DHT22;49205;44.868;38.140;2022-08-30T14:09:33;31.60;57.20
62853;DHT22;49205;44.868;38.140;2022-08-30T14:12:03;31.60;57.50
62853;DHT22;49205;44.868;38.140;2022-08-30T14:14:32;31.60;57.80
62853;DHT22;49205;44.868;38.140;2022-08-30T14:17:01;31.50;57.40
62853;DHT22;49205;44.868;38.140;2022-08-30T14:19:31;31.50;57.50
62853;DHT22;49205;44.868;38.140;2022-08-30T14:22:00;31.60;57.80
62853;DHT22;49205;44.868;38.140;2022-08-30T14:24:30;31.50;57.90
62853;DHT22;49205;44.868;38.140;2022-08-30T14:26:59;31.50;58.10
62853;DHT22;49205;44.868;38.140;2022-08-30T14:29:29;31.50;58.90
62853;DHT22;49205;44.868;38.140;2022-08-30T14:31:58;31.50;58.00
62853;DHT22;49205;44.868;38.140;2022-08-30T14:34:28;31.40;57.90
62853;DHT22;49205;44.868;38.140;2022-08-30T14:36:58;31.40;57.70
62853;DHT22;49205;44.868;38.140;2022-08-30T14:39:27;31.30;57.40
62853;DHT22;49205;44.868;38.140;2022-08-30T14:41:57;31.30;57.70
62853;DHT22;49205;44.868;38.140;2022-08-30T14:44:26;31.30;57.80
62853;DHT22;49205;44.868;38.140;2022-08-30T14:46:56;31.20;58.00
62853;DHT22;49205;44.868;38.140;2022-08-30T14:49:26;31.20;58.50
62853;DHT22;49205;44.868;38.140;2022-08-30T14:51:55;31.10;58.70
62853;DHT22;49205;44.868;38.140;2022-08-30T14:54:27;31.10;59.00
62853;DHT22;49205;44.868;38.140;2022-08-30T14:56:56;31.10;59.30
62853;DHT22;49205;44.868;38.140;2022-08-30T14:59:26;31.10;59.70
62853;DHT22;49205;44.868;38.140;2022-08-30T15:01:56;31.00;60.00
62853;DHT22;49205;44.868;38.140;2022-08-30T15:04:26;31.00;60.00
62853;DHT22;49205;44.868;38.140;2022-08-30T15:06:57;31.00;60.10
62853;DHT22;49205;44.868;38.140;2022-08-30T15:09:27;31.00;60.20
62853;DHT22;49205;44.868;38.140;2022-08-30T15:11:57;30.90;60.50
62853;DHT22;49205;44.868;38.140;2022-08-30T15:14:29;30.90;60.60
62853;DHT22;49205;44.868;38.140;2022-08-30T15:16:59;30.90;60.60
62853;DHT22;49205;44.868;38.140;2022-08-30T15:19:31;30.80;60.80
62853;DHT22;49205;44.868;38.140;2022-08-30T15:22:02;30.80;61.70
62853;DHT22;49205;44.868;38.140;2022-08-30T15:24:31;30.70;61.10
62853;DHT22;49205;44.868;38.140;2022-08-30T15:27:02;30.70;61.40
62853;DHT22;49205;44.868;38.140;2022-08-30T15:29:31;30.70;61.70
62853;DHT22;49205;44.868;38.140;2022-08-30T15:32:02;30.70;62.20
62853;DHT22;49205;44.868;38.140;2022-08-30T15:34:32;30.60;62.50
62853;DHT22;49205;44.868;38.140;2022-08-30T15:37:01;30.60;62.90
62853;DHT22;49205;44.868;38.140;2022-08-30T15:39:32;30.50;63.10
62853;DHT22;49205;44.868;38.140;2022-08-30T15:42:01;30.50;63.60
62853;DHT22;49205;44.868;38.140;2022-08-30T15:44:31;30.40;63.80
62853;DHT22;49205;44.868;38.140;2022-08-30T15:47:01;30.40;64.10
62853;DHT22;49205;44.868;38.140;2022-08-30T15:49:30;30.30;64.40
62853;DHT22;49205;44.868;38.140;2022-08-30T15:52:02;30.30;64.70
62853;DHT22;49205;44.868;38.140;2022-08-30T15:54:32;30.20;65.10
62853;DHT22;49205;44.868;38.140;2022-08-30T15:57:01;30.20;65.30
62853;DHT22;49205;44.868;38.140;2022-08-30T15:59:30;30.10;65.50
62853;DHT22;49205;44.868;38.140;2022-08-30T16:02:00;30.10;65.90
62853;DHT22;49205;44.868;38.140;2022-08-30T16:04:29;30.00;66.20
62853;DHT22;49205;44.868;38.140;2022-08-30T16:06:59;29.90;66.50
62853;DHT22;49205;44.868;38.140;2022-08-30T16:09:28;29.90;67.00
62853;DHT22;49205;44.868;38.140;2022-08-30T16:11:58;29.80;67.20
62853;DHT22;49205;44.868;38.140;2022-08-30T16:14:28;29.70;67.30
62853;DHT22;49205;44.868;38.140;2022-08-30T16:16:58;29.60;67.70
62853;DHT22;49205;44.868;38.140;2022-08-30T16:19:27;29.60;68.00
62853;DHT22;49205;44.868;38.140;2022-08-30T16:21:57;29.50;68.30
62853;DHT22;49205;44.868;38.140;2022-08-30T16:24:26;29.40;68.50
62853;DHT22;49205;44.868;38.140;2022-08-30T16:26:55;29.40;68.80
62853;DHT22;49205;44.868;38.140;2022-08-30T16:29:24;29.30;68.80
62853;DHT22;49205;44.868;38.140;2022-08-30T16:31:54;29.20;69.00
62853;DHT22;49205;44.868;38.140;2022-08-30T16:34:23;29.20;69.30
62853;DHT22;49205;44.868;38.140;2022-08-30T16:36:53;29.10;69.70
62853;DHT22;49205;44.868;38.140;2022-08-30T16:39:22;29.00;69.80
62853;DHT22;49205;44.868;38.140;2022-08-30T16:41:51;29.00;70.10
62853;DHT22;49205;44.868;38.140;2022-08-30T16:44:21;29.00;70.20
62853;DHT22;49205;44.868;38.140;2022-08-30T16:46:50;28.90;70.50